Weather forecast for Bozoy (Бозой)

Russia, 588 m
N53.011, E104.880


Sounding

Red line — air temperature ˚C.
Blue line — thermal bubble temperature ˚C.
Green line — dew point temperature ˚C.
Wind speed is in meters per second.

Table forecast

GFS 0.25˚ model

temp. wind gust humid. clouds prec. press. hpbl
Sat19 00:00 -17 297.0 wnw 2 2 97 75 0.0 1038 20
03:00 -18 303.0 wnw 2 2 98 40 0.0 1040 20
06:00 -19 314.0 nw 1 1 100 9 0.0 1040 20
09:00 -20 324.0 nw 0 0 100 20 0.0 1040 20
12:00 -17 128.0 se 1 1 97 59 0.0 1039 20
15:00 -12 104.0 ese 1 2 93 69 0.0 1035 118
18:00 -14 82.0 e 2 2 90 55 0.0 1033 20
21:00 -14 81.0 e 2 2 88 59 0.0 1032 20
 
Sun20 00:00 -14 80.0 e 2 2 79 83 0.0 1030 20
03:00 -16 97.0 e 1 1 77 67 0.0 1029 20
06:00 -16 297.0 wnw 1 1 77 51 0.0 1028 20
09:00 -15 267.0 w 1 1 78 72 0.0 1029 20
12:00 -13 244.0 wsw 2 2 81 100 0.0 1028 20
15:00 -10 237.0 wsw 1 2 83 100 0.0 1026 32
18:00 -12 257.0 wsw 1 1 77 100 0.0 1026 21
21:00 -14 350.0 n 1 1 67 88 0.0 1026 21
 
Mon21 00:00 -14 53.0 ne 0 0 61 72 0.0 1026 21
03:00 -15 297.0 wnw 0 0 60 56 0.0 1025 21
06:00 -15 324.0 nw 0 1 65 46 0.0 1024 20
09:00 -12 353.0 n 0 1 67 65 0.0 1024 21
12:00 -8 251.0 wsw 1 1 76 100 0.0 1024 23
15:00 -6 264.0 w 2 3 77 96 0.0 1021 196
18:00 -9 260.0 w 1 2 82 73 0.0 1022 21
21:00 -11 322.0 nw 1 1 84 77 0.0 1022 21
 
Tue22 00:00 -12 42.0 ne 1 1 84 70 0.0 1022 21
03:00 -11 49.0 ne 2 2 84 69 0.0 1021 21
06:00 -10 50.0 ne 2 3 85 83 0.0 1021 21
09:00 -11 37.0 ne 2 2 84 67 0.0 1022 21
12:00 -10 322.0 nw 1 1 83 96 0.0 1024 21
15:00 -7 244.0 wsw 2 2 86 98 0.0 1024 53
18:00 -10 241.0 wsw 2 3 91 99 0.0 1026 22
21:00 -12 256.0 wsw 1 2 91 95 0.0 1029 21
 
Wed23 00:00 -14 267.0 w 2 2 93 54 0.0 1031 20
03:00 -15 274.0 w 2 3 95 36 0.0 1033 20
06:00 -17 300.0 wnw 1 2 99 4 0.0 1035 20
09:00 -18 320.0 nw 1 1 100 2 0.0 1037 20
12:00 -16 330.0 nnw 1 1 95 9 0.0 1038 20
15:00 -12 161.0 sse 1 1 92 13 0.0 1036 175
18:00 -15 80.0 e 1 2 92 28 0.0 1036 20
21:00 -16 62.0 ene 2 3 82 25 0.0 1037 20
 

0.012 s